sensor_id;sensor_type;location;lat;lon;timestamp;P1;durP1;ratioP1;P2;durP2;ratioP2
7901;SDS011;3996;49.674;10.716;2023-02-10T00:03:47;29.30;;;16.30;;
7901;SDS011;3996;49.674;10.716;2023-02-10T00:06:14;31.20;;;16.07;;
7901;SDS011;3996;49.674;10.716;2023-02-10T00:08:40;28.47;;;15.27;;
7901;SDS011;3996;49.674;10.716;2023-02-10T00:11:10;28.80;;;15.37;;
7901;SDS011;3996;49.674;10.716;2023-02-10T00:13:36;31.43;;;16.17;;
7901;SDS011;3996;49.674;10.716;2023-02-10T00:16:03;31.23;;;16.80;;
7901;SDS011;3996;49.674;10.716;2023-02-10T00:18:30;30.00;;;16.33;;
7901;SDS011;3996;49.674;10.716;2023-02-10T00:20:56;32.53;;;16.63;;
7901;SDS011;3996;49.674;10.716;2023-02-10T00:23:33;36.77;;;17.63;;
7901;SDS011;3996;49.674;10.716;2023-02-10T00:26:03;32.87;;;17.67;;
7901;SDS011;3996;49.674;10.716;2023-02-10T00:28:29;31.77;;;17.30;;
7901;SDS011;3996;49.674;10.716;2023-02-10T00:30:56;34.53;;;17.60;;
7901;SDS011;3996;49.674;10.716;2023-02-10T00:33:22;39.00;;;18.53;;
7901;SDS011;3996;49.674;10.716;2023-02-10T00:35:47;34.23;;;17.40;;
7901;SDS011;3996;49.674;10.716;2023-02-10T00:38:13;38.10;;;17.53;;
7901;SDS011;3996;49.674;10.716;2023-02-10T00:40:38;30.50;;;16.53;;
7901;SDS011;3996;49.674;10.716;2023-02-10T00:43:04;29.00;;;16.17;;
7901;SDS011;3996;49.674;10.716;2023-02-10T00:45:29;33.27;;;16.43;;
7901;SDS011;3996;49.674;10.716;2023-02-10T00:47:55;31.30;;;16.73;;
7901;SDS011;3996;49.674;10.716;2023-02-10T00:50:21;34.77;;;17.53;;
7901;SDS011;3996;49.674;10.716;2023-02-10T00:52:46;35.53;;;18.23;;
7901;SDS011;3996;49.674;10.716;2023-02-10T00:55:12;31.03;;;17.70;;
7901;SDS011;3996;49.674;10.716;2023-02-10T00:57:37;33.53;;;17.03;;
7901;SDS011;3996;49.674;10.716;2023-02-10T01:00:03;34.03;;;18.70;;
7901;SDS011;3996;49.674;10.716;2023-02-10T01:02:30;34.90;;;18.73;;
7901;SDS011;3996;49.674;10.716;2023-02-10T01:04:56;34.30;;;18.17;;
7901;SDS011;3996;49.674;10.716;2023-02-10T01:07:21;35.33;;;18.37;;
7901;SDS011;3996;49.674;10.716;2023-02-10T01:09:47;31.13;;;17.03;;
7901;SDS011;3996;49.674;10.716;2023-02-10T01:12:13;30.17;;;17.30;;
7901;SDS011;3996;49.674;10.716;2023-02-10T01:14:38;30.00;;;16.90;;
7901;SDS011;3996;49.674;10.716;2023-02-10T01:17:04;33.43;;;16.90;;
7901;SDS011;3996;49.674;10.716;2023-02-10T01:19:30;30.97;;;17.97;;
7901;SDS011;3996;49.674;10.716;2023-02-10T01:21:55;30.07;;;16.40;;
7901;SDS011;3996;49.674;10.716;2023-02-10T01:24:21;30.67;;;17.23;;
7901;SDS011;3996;49.674;10.716;2023-02-10T01:26:46;30.97;;;16.77;;
7901;SDS011;3996;49.674;10.716;2023-02-10T01:29:12;35.20;;;17.23;;
7901;SDS011;3996;49.674;10.716;2023-02-10T01:31:38;35.57;;;18.67;;
7901;SDS011;3996;49.674;10.716;2023-02-10T01:34:04;31.07;;;17.80;;
7901;SDS011;3996;49.674;10.716;2023-02-10T01:36:29;30.10;;;16.60;;
7901;SDS011;3996;49.674;10.716;2023-02-10T01:38:55;29.90;;;17.37;;
7901;SDS011;3996;49.674;10.716;2023-02-10T01:41:21;32.27;;;18.17;;
7901;SDS011;3996;49.674;10.716;2023-02-10T01:43:55;33.63;;;18.60;;
7901;SDS011;3996;49.674;10.716;2023-02-10T01:46:30;31.93;;;16.87;;
7901;SDS011;3996;49.674;10.716;2023-02-10T01:49:00;35.87;;;18.77;;
7901;SDS011;3996;49.674;10.716;2023-02-10T01:51:31;34.33;;;17.23;;
7901;SDS011;3996;49.674;10.716;2023-02-10T01:54:06;33.23;;;18.50;;
7901;SDS011;3996;49.674;10.716;2023-02-10T01:56:37;29.80;;;16.80;;
7901;SDS011;3996;49.674;10.716;2023-02-10T01:59:03;30.40;;;16.47;;
7901;SDS011;3996;49.674;10.716;2023-02-10T02:01:29;31.47;;;16.97;;
7901;SDS011;3996;49.674;10.716;2023-02-10T02:03:55;32.53;;;18.20;;
7901;SDS011;3996;49.674;10.716;2023-02-10T02:06:21;32.47;;;17.23;;
7901;SDS011;3996;49.674;10.716;2023-02-10T02:08:47;31.87;;;16.93;;
7901;SDS011;3996;49.674;10.716;2023-02-10T02:24:24;33.10;;;17.57;;
7901;SDS011;3996;49.674;10.716;2023-02-10T02:32:42;32.43;;;17.90;;
7901;SDS011;3996;49.674;10.716;2023-02-10T02:35:15;29.23;;;17.23;;
7901;SDS011;3996;49.674;10.716;2023-02-10T02:37:46;30.07;;;16.73;;
7901;SDS011;3996;49.674;10.716;2023-02-10T02:40:15;31.17;;;16.70;;
7901;SDS011;3996;49.674;10.716;2023-02-10T02:42:41;32.07;;;18.27;;
7901;SDS011;3996;49.674;10.716;2023-02-10T02:45:17;32.57;;;17.77;;
7901;SDS011;3996;49.674;10.716;2023-02-10T02:50:49;32.03;;;17.17;;
7901;SDS011;3996;49.674;10.716;2023-02-10T02:53:24;32.33;;;17.20;;
7901;SDS011;3996;49.674;10.716;2023-02-10T02:56:23;32.80;;;17.40;;
7901;SDS011;3996;49.674;10.716;2023-02-10T03:01:50;30.80;;;17.03;;
7901;SDS011;3996;49.674;10.716;2023-02-10T03:04:20;33.97;;;18.20;;
7901;SDS011;3996;49.674;10.716;2023-02-10T03:06:46;32.10;;;17.73;;
7901;SDS011;3996;49.674;10.716;2023-02-10T03:09:12;33.97;;;17.33;;
7901;SDS011;3996;49.674;10.716;2023-02-10T03:11:39;32.17;;;17.83;;
7901;SDS011;3996;49.674;10.716;2023-02-10T03:14:05;34.63;;;18.40;;
7901;SDS011;3996;49.674;10.716;2023-02-10T03:16:30;35.10;;;18.73;;
7901;SDS011;3996;49.674;10.716;2023-02-10T03:18:56;32.60;;;17.20;;
7901;SDS011;3996;49.674;10.716;2023-02-10T03:21:22;32.67;;;17.33;;
7901;SDS011;3996;49.674;10.716;2023-02-10T03:23:47;34.30;;;18.07;;
7901;SDS011;3996;49.674;10.716;2023-02-10T03:26:13;32.27;;;18.13;;
7901;SDS011;3996;49.674;10.716;2023-02-10T03:28:38;34.57;;;18.63;;
7901;SDS011;3996;49.674;10.716;2023-02-10T03:31:05;35.70;;;18.17;;
7901;SDS011;3996;49.674;10.716;2023-02-10T03:33:31;39.57;;;19.23;;
7901;SDS011;3996;49.674;10.716;2023-02-10T03:35:57;37.30;;;20.43;;
7901;SDS011;3996;49.674;10.716;2023-02-10T03:38:23;34.27;;;18.33;;
7901;SDS011;3996;49.674;10.716;2023-02-10T03:40:50;34.50;;;18.23;;
7901;SDS011;3996;49.674;10.716;2023-02-10T03:43:16;36.97;;;18.93;;
7901;SDS011;3996;49.674;10.716;2023-02-10T03:45:42;34.90;;;18.90;;
7901;SDS011;3996;49.674;10.716;2023-02-10T03:48:08;34.13;;;18.93;;
7901;SDS011;3996;49.674;10.716;2023-02-10T03:50:34;35.43;;;19.20;;
7901;SDS011;3996;49.674;10.716;2023-02-10T03:53:00;38.73;;;19.07;;
7901;SDS011;3996;49.674;10.716;2023-02-10T03:55:26;37.10;;;20.83;;
7901;SDS011;3996;49.674;10.716;2023-02-10T03:57:52;37.83;;;19.60;;
7901;SDS011;3996;49.674;10.716;2023-02-10T04:00:17;36.43;;;20.00;;
7901;SDS011;3996;49.674;10.716;2023-02-10T04:02:43;33.30;;;18.63;;
7901;SDS011;3996;49.674;10.716;2023-02-10T04:05:09;31.57;;;17.77;;
7901;SDS011;3996;49.674;10.716;2023-02-10T04:07:34;32.17;;;18.63;;
7901;SDS011;3996;49.674;10.716;2023-02-10T04:10:00;33.80;;;19.03;;
7901;SDS011;3996;49.674;10.716;2023-02-10T04:12:26;32.83;;;17.50;;
7901;SDS011;3996;49.674;10.716;2023-02-10T04:14:51;33.70;;;18.70;;
7901;SDS011;3996;49.674;10.716;2023-02-10T04:17:17;31.87;;;16.80;;
7901;SDS011;3996;49.674;10.716;2023-02-10T04:19:42;31.87;;;17.03;;
7901;SDS011;3996;49.674;10.716;2023-02-10T04:22:08;38.80;;;18.27;;
7901;SDS011;3996;49.674;10.716;2023-02-10T04:24:33;31.83;;;17.57;;
7901;SDS011;3996;49.674;10.716;2023-02-10T04:26:59;37.60;;;18.83;;
7901;SDS011;3996;49.674;10.716;2023-02-10T04:29:25;31.57;;;18.00;;
7901;SDS011;3996;49.674;10.716;2023-02-10T04:31:50;32.67;;;17.53;;
7901;SDS011;3996;49.674;10.716;2023-02-10T04:34:16;37.73;;;19.27;;
7901;SDS011;3996;49.674;10.716;2023-02-10T04:36:41;36.57;;;19.20;;
7901;SDS011;3996;49.674;10.716;2023-02-10T04:39:07;34.50;;;18.53;;
7901;SDS011;3996;49.674;10.716;2023-02-10T04:41:32;33.33;;;18.40;;
7901;SDS011;3996;49.674;10.716;2023-02-10T04:43:58;35.40;;;18.00;;
7901;SDS011;3996;49.674;10.716;2023-02-10T04:46:23;31.87;;;17.97;;
7901;SDS011;3996;49.674;10.716;2023-02-10T04:48:49;35.67;;;18.93;;
7901;SDS011;3996;49.674;10.716;2023-02-10T04:51:15;35.87;;;18.73;;
7901;SDS011;3996;49.674;10.716;2023-02-10T04:53:41;32.60;;;18.67;;
7901;SDS011;3996;49.674;10.716;2023-02-10T04:56:08;27.33;;;16.77;;
7901;SDS011;3996;49.674;10.716;2023-02-10T04:58:34;34.23;;;17.67;;
7901;SDS011;3996;49.674;10.716;2023-02-10T05:01:00;34.53;;;17.93;;
7901;SDS011;3996;49.674;10.716;2023-02-10T05:03:26;36.53;;;18.67;;
7901;SDS011;3996;49.674;10.716;2023-02-10T05:05:51;34.83;;;18.93;;
7901;SDS011;3996;49.674;10.716;2023-02-10T05:08:17;34.50;;;18.40;;
7901;SDS011;3996;49.674;10.716;2023-02-10T05:10:52;29.87;;;17.90;;
7901;SDS011;3996;49.674;10.716;2023-02-10T05:13:18;36.33;;;18.30;;
7901;SDS011;3996;49.674;10.716;2023-02-10T05:15:44;35.33;;;17.97;;
7901;SDS011;3996;49.674;10.716;2023-02-10T05:18:10;32.03;;;18.20;;
7901;SDS011;3996;49.674;10.716;2023-02-10T05:20:36;36.40;;;19.20;;
7901;SDS011;3996;49.674;10.716;2023-02-10T05:23:01;37.20;;;19.40;;
7901;SDS011;3996;49.674;10.716;2023-02-10T05:25:27;34.27;;;18.67;;
7901;SDS011;3996;49.674;10.716;2023-02-10T05:27:53;34.70;;;19.43;;
7901;SDS011;3996;49.674;10.716;2023-02-10T05:30:18;36.20;;;19.53;;
7901;SDS011;3996;49.674;10.716;2023-02-10T05:32:44;35.93;;;18.63;;
7901;SDS011;3996;49.674;10.716;2023-02-10T05:35:10;35.83;;;19.30;;
7901;SDS011;3996;49.674;10.716;2023-02-10T05:37:35;35.30;;;18.90;;
7901;SDS011;3996;49.674;10.716;2023-02-10T05:40:01;35.80;;;18.30;;
7901;SDS011;3996;49.674;10.716;2023-02-10T05:42:27;35.10;;;19.30;;
7901;SDS011;3996;49.674;10.716;2023-02-10T05:44:53;38.07;;;20.13;;
7901;SDS011;3996;49.674;10.716;2023-02-10T05:47:18;34.90;;;18.23;;
7901;SDS011;3996;49.674;10.716;2023-02-10T05:49:44;35.07;;;18.90;;
7901;SDS011;3996;49.674;10.716;2023-02-10T05:52:10;33.37;;;18.37;;
7901;SDS011;3996;49.674;10.716;2023-02-10T05:54:35;38.63;;;19.17;;
7901;SDS011;3996;49.674;10.716;2023-02-10T05:57:01;35.60;;;18.87;;
7901;SDS011;3996;49.674;10.716;2023-02-10T05:59:27;33.67;;;19.00;;
7901;SDS011;3996;49.674;10.716;2023-02-10T06:01:52;35.93;;;18.57;;
7901;SDS011;3996;49.674;10.716;2023-02-10T06:04:18;33.50;;;17.70;;
7901;SDS011;3996;49.674;10.716;2023-02-10T06:06:44;32.30;;;17.23;;
7901;SDS011;3996;49.674;10.716;2023-02-10T06:09:09;36.63;;;19.27;;
7901;SDS011;3996;49.674;10.716;2023-02-10T06:11:35;33.33;;;18.20;;
7901;SDS011;3996;49.674;10.716;2023-02-10T06:14:01;36.03;;;19.37;;
7901;SDS011;3996;49.674;10.716;2023-02-10T06:16:26;37.37;;;18.63;;
7901;SDS011;3996;49.674;10.716;2023-02-10T06:18:52;36.77;;;19.13;;
7901;SDS011;3996;49.674;10.716;2023-02-10T06:21:18;33.47;;;18.17;;
7901;SDS011;3996;49.674;10.716;2023-02-10T06:23:44;35.27;;;18.20;;
7901;SDS011;3996;49.674;10.716;2023-02-10T06:26:09;33.33;;;18.17;;
7901;SDS011;3996;49.674;10.716;2023-02-10T06:28:35;34.40;;;17.67;;
7901;SDS011;3996;49.674;10.716;2023-02-10T06:31:01;33.03;;;18.30;;
7901;SDS011;3996;49.674;10.716;2023-02-10T06:33:27;33.53;;;18.47;;
7901;SDS011;3996;49.674;10.716;2023-02-10T06:35:53;35.43;;;18.73;;
7901;SDS011;3996;49.674;10.716;2023-02-10T06:38:19;33.60;;;18.70;;
7901;SDS011;3996;49.674;10.716;2023-02-10T06:40:44;38.43;;;20.20;;
7901;SDS011;3996;49.674;10.716;2023-02-10T06:43:10;40.50;;;19.67;;
7901;SDS011;3996;49.674;10.716;2023-02-10T06:45:36;35.73;;;18.50;;
7901;SDS011;3996;49.674;10.716;2023-02-10T06:48:02;37.37;;;18.37;;
7901;SDS011;3996;49.674;10.716;2023-02-10T06:50:28;34.10;;;19.10;;
7901;SDS011;3996;49.674;10.716;2023-02-10T06:52:53;31.50;;;18.70;;
7901;SDS011;3996;49.674;10.716;2023-02-10T06:55:19;40.73;;;22.57;;
7901;SDS011;3996;49.674;10.716;2023-02-10T06:57:45;37.60;;;20.73;;
7901;SDS011;3996;49.674;10.716;2023-02-10T07:00:11;34.30;;;18.97;;
7901;SDS011;3996;49.674;10.716;2023-02-10T07:02:38;39.10;;;20.63;;
7901;SDS011;3996;49.674;10.716;2023-02-10T07:05:06;34.97;;;19.23;;
7901;SDS011;3996;49.674;10.716;2023-02-10T07:07:33;35.83;;;20.30;;
7901;SDS011;3996;49.674;10.716;2023-02-10T07:09:59;37.77;;;20.63;;
7901;SDS011;3996;49.674;10.716;2023-02-10T07:12:25;49.27;;;22.67;;
7901;SDS011;3996;49.674;10.716;2023-02-10T07:14:51;45.03;;;25.07;;
7901;SDS011;3996;49.674;10.716;2023-02-10T07:17:17;41.87;;;22.37;;
7901;SDS011;3996;49.674;10.716;2023-02-10T07:19:43;49.33;;;27.33;;
7901;SDS011;3996;49.674;10.716;2023-02-10T07:22:09;42.63;;;25.83;;
7901;SDS011;3996;49.674;10.716;2023-02-10T07:24:35;40.90;;;23.07;;
7901;SDS011;3996;49.674;10.716;2023-02-10T07:27:00;41.03;;;22.43;;
7901;SDS011;3996;49.674;10.716;2023-02-10T07:29:27;42.10;;;22.27;;
7901;SDS011;3996;49.674;10.716;2023-02-10T07:31:53;48.30;;;24.67;;
7901;SDS011;3996;49.674;10.716;2023-02-10T07:34:18;48.87;;;26.77;;
7901;SDS011;3996;49.674;10.716;2023-02-10T07:36:46;47.63;;;25.23;;
7901;SDS011;3996;49.674;10.716;2023-02-10T07:39:12;40.13;;;22.70;;
7901;SDS011;3996;49.674;10.716;2023-02-10T07:41:37;37.20;;;21.10;;
7901;SDS011;3996;49.674;10.716;2023-02-10T07:44:07;34.47;;;21.37;;
7901;SDS011;3996;49.674;10.716;2023-02-10T07:46:42;38.13;;;21.73;;
7901;SDS011;3996;49.674;10.716;2023-02-10T07:49:07;40.77;;;21.27;;
7901;SDS011;3996;49.674;10.716;2023-02-10T07:51:33;36.57;;;20.63;;
7901;SDS011;3996;49.674;10.716;2023-02-10T07:53:59;43.43;;;22.00;;
7901;SDS011;3996;49.674;10.716;2023-02-10T07:56:24;40.67;;;22.50;;
7901;SDS011;3996;49.674;10.716;2023-02-10T07:58:50;38.50;;;22.70;;
7901;SDS011;3996;49.674;10.716;2023-02-10T08:01:16;37.67;;;22.07;;
7901;SDS011;3996;49.674;10.716;2023-02-10T08:03:41;40.83;;;21.37;;
7901;SDS011;3996;49.674;10.716;2023-02-10T08:06:07;43.23;;;23.33;;
7901;SDS011;3996;49.674;10.716;2023-02-10T08:08:33;40.13;;;23.27;;
7901;SDS011;3996;49.674;10.716;2023-02-10T08:10:59;39.57;;;21.80;;
7901;SDS011;3996;49.674;10.716;2023-02-10T08:13:24;39.67;;;22.97;;
7901;SDS011;3996;49.674;10.716;2023-02-10T08:15:52;45.33;;;23.27;;
7901;SDS011;3996;49.674;10.716;2023-02-10T08:18:18;44.87;;;22.37;;
7901;SDS011;3996;49.674;10.716;2023-02-10T08:20:43;43.30;;;23.23;;
7901;SDS011;3996;49.674;10.716;2023-02-10T08:23:13;54.33;;;32.47;;
7901;SDS011;3996;49.674;10.716;2023-02-10T08:25:39;41.87;;;24.27;;
7901;SDS011;3996;49.674;10.716;2023-02-10T08:28:05;52.47;;;31.20;;
7901;SDS011;3996;49.674;10.716;2023-02-10T08:30:31;72.90;;;39.67;;
7901;SDS011;3996;49.674;10.716;2023-02-10T08:32:57;54.07;;;28.07;;
7901;SDS011;3996;49.674;10.716;2023-02-10T08:35:23;46.17;;;24.30;;
7901;SDS011;3996;49.674;10.716;2023-02-10T08:37:49;51.90;;;30.43;;
7901;SDS011;3996;49.674;10.716;2023-02-10T08:40:15;56.10;;;32.13;;
7901;SDS011;3996;49.674;10.716;2023-02-10T08:42:42;43.57;;;25.20;;
7901;SDS011;3996;49.674;10.716;2023-02-10T08:45:08;43.70;;;24.03;;
7901;SDS011;3996;49.674;10.716;2023-02-10T08:47:34;45.03;;;23.37;;
7901;SDS011;3996;49.674;10.716;2023-02-10T08:50:00;40.57;;;23.70;;
7901;SDS011;3996;49.674;10.716;2023-02-10T08:52:26;42.00;;;23.43;;
7901;SDS011;3996;49.674;10.716;2023-02-10T08:54:52;51.50;;;25.90;;
7901;SDS011;3996;49.674;10.716;2023-02-10T08:57:17;46.07;;;25.80;;
7901;SDS011;3996;49.674;10.716;2023-02-10T08:59:43;42.30;;;23.47;;
7901;SDS011;3996;49.674;10.716;2023-02-10T09:02:10;46.17;;;24.37;;
7901;SDS011;3996;49.674;10.716;2023-02-10T09:04:36;52.37;;;28.73;;
7901;SDS011;3996;49.674;10.716;2023-02-10T09:07:02;47.13;;;25.10;;
7901;SDS011;3996;49.674;10.716;2023-02-10T09:09:27;44.87;;;25.13;;
7901;SDS011;3996;49.674;10.716;2023-02-10T09:11:53;46.13;;;25.23;;
7901;SDS011;3996;49.674;10.716;2023-02-10T09:14:19;42.23;;;24.67;;
7901;SDS011;3996;49.674;10.716;2023-02-10T09:16:45;46.77;;;26.37;;
7901;SDS011;3996;49.674;10.716;2023-02-10T09:19:11;44.43;;;25.70;;
7901;SDS011;3996;49.674;10.716;2023-02-10T09:21:37;44.43;;;24.53;;
7901;SDS011;3996;49.674;10.716;2023-02-10T09:24:02;44.67;;;24.87;;
7901;SDS011;3996;49.674;10.716;2023-02-10T09:26:28;47.90;;;26.57;;
7901;SDS011;3996;49.674;10.716;2023-02-10T09:28:54;43.47;;;24.60;;
7901;SDS011;3996;49.674;10.716;2023-02-10T09:31:20;47.67;;;26.07;;
7901;SDS011;3996;49.674;10.716;2023-02-10T09:33:47;47.17;;;25.70;;
7901;SDS011;3996;49.674;10.716;2023-02-10T09:36:15;44.87;;;25.37;;
7901;SDS011;3996;49.674;10.716;2023-02-10T09:38:42;46.00;;;25.70;;
7901;SDS011;3996;49.674;10.716;2023-02-10T09:52:32;42.50;;;23.73;;
7901;SDS011;3996;49.674;10.716;2023-02-10T09:55:16;44.80;;;23.93;;
7901;SDS011;3996;49.674;10.716;2023-02-10T09:57:48;44.23;;;24.03;;
7901;SDS011;3996;49.674;10.716;2023-02-10T10:00:40;41.90;;;24.70;;
7901;SDS011;3996;49.674;10.716;2023-02-10T10:03:10;45.77;;;24.77;;
7901;SDS011;3996;49.674;10.716;2023-02-10T10:08:22;43.03;;;23.30;;
7901;SDS011;3996;49.674;10.716;2023-02-10T10:10:52;44.33;;;24.70;;
7901;SDS011;3996;49.674;10.716;2023-02-10T10:13:25;46.17;;;24.83;;
7901;SDS011;3996;49.674;10.716;2023-02-10T10:16:40;46.20;;;25.57;;
7901;SDS011;3996;49.674;10.716;2023-02-10T10:21:25;46.87;;;24.37;;
7901;SDS011;3996;49.674;10.716;2023-02-10T10:24:24;44.07;;;24.20;;
7901;SDS011;3996;49.674;10.716;2023-02-10T10:27:10;46.17;;;25.37;;
7901;SDS011;3996;49.674;10.716;2023-02-10T10:32:46;41.03;;;23.90;;
7901;SDS011;3996;49.674;10.716;2023-02-10T10:35:21;47.57;;;25.90;;
7901;SDS011;3996;49.674;10.716;2023-02-10T10:37:52;51.00;;;24.87;;
7901;SDS011;3996;49.674;10.716;2023-02-10T10:40:20;46.73;;;24.97;;
7901;SDS011;3996;49.674;10.716;2023-02-10T10:42:50;44.13;;;25.93;;
7901;SDS011;3996;49.674;10.716;2023-02-10T10:45:31;49.07;;;27.67;;
7901;SDS011;3996;49.674;10.716;2023-02-10T10:48:08;47.80;;;27.60;;
7901;SDS011;3996;49.674;10.716;2023-02-10T10:50:39;50.00;;;27.70;;
7901;SDS011;3996;49.674;10.716;2023-02-10T10:53:11;49.00;;;28.10;;
7901;SDS011;3996;49.674;10.716;2023-02-10T10:55:41;42.73;;;26.70;;
7901;SDS011;3996;49.674;10.716;2023-02-10T10:58:23;51.00;;;27.03;;
7901;SDS011;3996;49.674;10.716;2023-02-10T11:00:57;44.80;;;25.07;;
7901;SDS011;3996;49.674;10.716;2023-02-10T11:03:26;44.93;;;26.13;;
7901;SDS011;3996;49.674;10.716;2023-02-10T11:08:42;49.13;;;28.70;;
7901;SDS011;3996;49.674;10.716;2023-02-10T11:11:12;53.47;;;29.70;;
7901;SDS011;3996;49.674;10.716;2023-02-10T11:13:47;52.93;;;28.67;;
7901;SDS011;3996;49.674;10.716;2023-02-10T11:16:15;47.90;;;27.90;;
7901;SDS011;3996;49.674;10.716;2023-02-10T11:19:42;61.73;;;33.33;;
7901;SDS011;3996;49.674;10.716;2023-02-10T11:21:43;53.67;;;30.03;;
7901;SDS011;3996;49.674;10.716;2023-02-10T11:24:26;57.57;;;29.47;;
7901;SDS011;3996;49.674;10.716;2023-02-10T11:26:57;50.03;;;28.90;;
7901;SDS011;3996;49.674;10.716;2023-02-10T11:29:23;50.00;;;27.83;;
7901;SDS011;3996;49.674;10.716;2023-02-10T11:31:50;53.93;;;29.77;;
7901;SDS011;3996;49.674;10.716;2023-02-10T11:34:22;59.83;;;34.47;;
7901;SDS011;3996;49.674;10.716;2023-02-10T11:36:52;52.03;;;29.77;;
7901;SDS011;3996;49.674;10.716;2023-02-10T11:42:09;48.33;;;28.23;;
7901;SDS011;3996;49.674;10.716;2023-02-10T11:48:04;46.70;;;25.60;;
7901;SDS011;3996;49.674;10.716;2023-02-10T11:50:38;45.83;;;26.70;;
7901;SDS011;3996;49.674;10.716;2023-02-10T11:53:04;53.10;;;28.27;;
7901;SDS011;3996;49.674;10.716;2023-02-10T11:55:41;46.57;;;26.70;;
7901;SDS011;3996;49.674;10.716;2023-02-10T12:07:24;46.77;;;26.13;;
7901;SDS011;3996;49.674;10.716;2023-02-10T12:16:02;45.43;;;25.43;;
7901;SDS011;3996;49.674;10.716;2023-02-10T12:18:36;46.80;;;25.63;;
7901;SDS011;3996;49.674;10.716;2023-02-10T12:29:50;50.83;;;24.53;;
7901;SDS011;3996;49.674;10.716;2023-02-10T12:35:10;44.17;;;25.23;;
7901;SDS011;3996;49.674;10.716;2023-02-10T12:48:36;43.17;;;26.50;;
7901;SDS011;3996;49.674;10.716;2023-02-10T12:56:49;49.47;;;27.63;;
7901;SDS011;3996;49.674;10.716;2023-02-10T13:01:50;48.80;;;26.47;;
7901;SDS011;3996;49.674;10.716;2023-02-10T13:04:22;46.37;;;26.53;;
7901;SDS011;3996;49.674;10.716;2023-02-10T13:12:13;45.30;;;26.93;;
7901;SDS011;3996;49.674;10.716;2023-02-10T13:14:43;47.47;;;26.07;;
7901;SDS011;3996;49.674;10.716;2023-02-10T13:17:11;49.53;;;27.70;;
7901;SDS011;3996;49.674;10.716;2023-02-10T13:19:46;50.10;;;27.50;;
7901;SDS011;3996;49.674;10.716;2023-02-10T13:25:42;47.07;;;27.70;;
7901;SDS011;3996;49.674;10.716;2023-02-10T13:28:48;47.43;;;27.37;;
7901;SDS011;3996;49.674;10.716;2023-02-10T13:34:24;46.40;;;25.87;;
7901;SDS011;3996;49.674;10.716;2023-02-10T13:37:13;48.50;;;26.03;;
7901;SDS011;3996;49.674;10.716;2023-02-10T13:40:03;45.60;;;25.33;;
7901;SDS011;3996;49.674;10.716;2023-02-10T13:42:58;45.83;;;27.63;;
7901;SDS011;3996;49.674;10.716;2023-02-10T13:45:28;42.77;;;24.13;;
7901;SDS011;3996;49.674;10.716;2023-02-10T14:01:36;44.93;;;25.37;;
7901;SDS011;3996;49.674;10.716;2023-02-10T14:12:54;41.13;;;24.37;;
7901;SDS011;3996;49.674;10.716;2023-02-10T14:15:36;43.10;;;24.47;;
7901;SDS011;3996;49.674;10.716;2023-02-10T14:18:20;43.57;;;24.90;;
7901;SDS011;3996;49.674;10.716;2023-02-10T14:23:51;44.73;;;24.37;;
7901;SDS011;3996;49.674;10.716;2023-02-10T14:26:30;41.03;;;23.17;;
7901;SDS011;3996;49.674;10.716;2023-02-10T14:29:00;66.60;;;38.07;;
7901;SDS011;3996;49.674;10.716;2023-02-10T14:31:27;40.07;;;24.13;;
7901;SDS011;3996;49.674;10.716;2023-02-10T14:33:57;43.37;;;25.10;;
7901;SDS011;3996;49.674;10.716;2023-02-10T14:36:28;41.83;;;24.43;;
7901;SDS011;3996;49.674;10.716;2023-02-10T14:38:55;41.67;;;23.47;;
7901;SDS011;3996;49.674;10.716;2023-02-10T14:41:29;42.17;;;24.57;;
7901;SDS011;3996;49.674;10.716;2023-02-10T14:43:56;42.07;;;24.53;;
7901;SDS011;3996;49.674;10.716;2023-02-10T14:46:23;43.97;;;24.20;;
7901;SDS011;3996;49.674;10.716;2023-02-10T14:51:37;37.93;;;22.97;;
7901;SDS011;3996;49.674;10.716;2023-02-10T14:59:24;42.83;;;25.60;;
7901;SDS011;3996;49.674;10.716;2023-02-10T15:01:52;41.87;;;25.37;;
7901;SDS011;3996;49.674;10.716;2023-02-10T15:04:19;41.60;;;25.37;;
7901;SDS011;3996;49.674;10.716;2023-02-10T15:06:49;39.53;;;24.27;;
7901;SDS011;3996;49.674;10.716;2023-02-10T15:09:18;41.37;;;24.83;;
7901;SDS011;3996;49.674;10.716;2023-02-10T15:11:52;41.07;;;25.23;;
7901;SDS011;3996;49.674;10.716;2023-02-10T15:17:17;55.57;;;30.93;;
7901;SDS011;3996;49.674;10.716;2023-02-10T15:27:50;49.83;;;29.23;;
7901;SDS011;3996;49.674;10.716;2023-02-10T15:30:26;48.73;;;29.20;;
7901;SDS011;3996;49.674;10.716;2023-02-10T15:32:57;52.60;;;28.87;;
7901;SDS011;3996;49.674;10.716;2023-02-10T15:35:24;53.10;;;29.03;;
7901;SDS011;3996;49.674;10.716;2023-02-10T15:37:51;50.17;;;30.23;;
7901;SDS011;3996;49.674;10.716;2023-02-10T15:40:23;53.03;;;34.00;;
7901;SDS011;3996;49.674;10.716;2023-02-10T15:42:58;49.97;;;30.97;;
7901;SDS011;3996;49.674;10.716;2023-02-10T15:45:46;50.23;;;28.30;;
7901;SDS011;3996;49.674;10.716;2023-02-10T15:48:14;52.60;;;28.77;;
7901;SDS011;3996;49.674;10.716;2023-02-10T15:50:46;42.73;;;26.37;;
7901;SDS011;3996;49.674;10.716;2023-02-10T15:53:13;49.13;;;27.30;;
7901;SDS011;3996;49.674;10.716;2023-02-10T15:55:45;45.53;;;27.83;;
7901;SDS011;3996;49.674;10.716;2023-02-10T15:58:12;49.67;;;28.13;;
7901;SDS011;3996;49.674;10.716;2023-02-10T16:00:38;46.20;;;27.10;;
7901;SDS011;3996;49.674;10.716;2023-02-10T16:03:06;44.93;;;27.87;;
7901;SDS011;3996;49.674;10.716;2023-02-10T16:05:32;44.20;;;26.60;;
7901;SDS011;3996;49.674;10.716;2023-02-10T16:08:05;50.90;;;27.93;;
7901;SDS011;3996;49.674;10.716;2023-02-10T16:10:34;47.77;;;27.20;;
7901;SDS011;3996;49.674;10.716;2023-02-10T16:13:00;46.97;;;28.83;;
7901;SDS011;3996;49.674;10.716;2023-02-10T16:15:26;46.83;;;28.30;;
7901;SDS011;3996;49.674;10.716;2023-02-10T16:17:53;50.13;;;29.40;;
7901;SDS011;3996;49.674;10.716;2023-02-10T16:20:23;47.67;;;28.07;;
7901;SDS011;3996;49.674;10.716;2023-02-10T16:22:51;50.47;;;28.20;;
7901;SDS011;3996;49.674;10.716;2023-02-10T16:25:18;48.77;;;29.23;;
7901;SDS011;3996;49.674;10.716;2023-02-10T16:27:45;46.27;;;27.97;;
7901;SDS011;3996;49.674;10.716;2023-02-10T16:30:15;56.60;;;30.23;;
7901;SDS011;3996;49.674;10.716;2023-02-10T16:32:42;47.60;;;28.10;;
7901;SDS011;3996;49.674;10.716;2023-02-10T16:35:08;47.90;;;28.40;;
7901;SDS011;3996;49.674;10.716;2023-02-10T16:37:35;48.73;;;28.03;;
7901;SDS011;3996;49.674;10.716;2023-02-10T16:40:01;47.03;;;26.27;;
7901;SDS011;3996;49.674;10.716;2023-02-10T16:42:29;43.60;;;26.00;;
7901;SDS011;3996;49.674;10.716;2023-02-10T16:44:54;49.17;;;26.20;;
7901;SDS011;3996;49.674;10.716;2023-02-10T16:47:20;49.90;;;29.17;;
7901;SDS011;3996;49.674;10.716;2023-02-10T16:49:47;51.13;;;28.77;;
7901;SDS011;3996;49.674;10.716;2023-02-10T16:52:13;47.47;;;26.63;;
7901;SDS011;3996;49.674;10.716;2023-02-10T16:54:39;52.37;;;29.20;;
7901;SDS011;3996;49.674;10.716;2023-02-10T16:57:05;46.03;;;28.37;;
7901;SDS011;3996;49.674;10.716;2023-02-10T16:59:31;46.20;;;27.50;;
7901;SDS011;3996;49.674;10.716;2023-02-10T17:01:57;47.37;;;26.97;;
7901;SDS011;3996;49.674;10.716;2023-02-10T17:04:23;49.17;;;27.20;;
7901;SDS011;3996;49.674;10.716;2023-02-10T17:06:48;43.97;;;27.10;;
7901;SDS011;3996;49.674;10.716;2023-02-10T17:09:20;47.33;;;26.50;;
7901;SDS011;3996;49.674;10.716;2023-02-10T17:11:47;43.67;;;26.37;;
7901;SDS011;3996;49.674;10.716;2023-02-10T17:14:14;41.93;;;25.30;;
7901;SDS011;3996;49.674;10.716;2023-02-10T17:16:44;45.97;;;25.97;;
7901;SDS011;3996;49.674;10.716;2023-02-10T17:19:12;47.40;;;26.87;;